Time;durP1;ratioP1;P1;durP2;ratioP2;P2;SDS_P1;SDS_P2;PMS_P1;PMS_P2;Temp;Humidity;BMP_temperature;BMP_pressure;BME280_temperature;BME280_humidity;BME280_pressure;Samples;Min_cycle;Max_cycle;Signal;HPM_P1;HPM_P2
2023/04/25 00:08:05;;;;;;;;;;;;;;;22.61;47.59;99250.63;41524743;28;20380;-74
2023/04/25 00:28:07;;;;;;;;;;;;;;;22.59;47.50;99230.66;41528757;28;20368;-74
2023/04/25 00:48:07;;;;;;;;;;;;;;;22.58;47.26;99226.34;41521137;28;19925;-76
2023/04/25 01:08:07;;;;;;;;;;;;;;;22.57;47.41;99204.44;41511581;28;19925;-75
2023/04/25 01:28:08;;;;;;;;;;;;;;;22.53;47.23;99203.06;41424009;28;19930;-75
2023/04/25 01:48:09;;;;;;;;;;;;;;;22.52;47.16;99196.97;41549962;28;19929;-75
2023/04/25 02:08:09;;;;;;;;;;;;;;;22.50;47.12;99188.38;41593043;28;19928;-74
2023/04/25 02:28:10;;;;;;;;;;;;;;;22.48;46.90;99192.97;41539194;28;19925;-76
2023/04/25 02:48:10;;;;;;;;;;;;;;;22.48;46.98;99184.25;41484557;28;20169;-75
2023/04/25 03:08:10;;;;;;;;;;;;;;;22.45;46.81;99180.13;41434724;28;20019;-77
2023/04/25 03:28:11;;;;;;;;;;;;;;;22.44;46.51;99183.75;41519066;28;20380;-74
2023/04/25 03:48:11;;;;;;;;;;;;;;;22.41;46.70;99189.34;41497900;28;19933;-74
2023/04/25 04:08:12;;;;;;;;;;;;;;;22.38;46.93;99190.44;41475639;28;20031;-73
2023/04/25 04:28:13;;;;;;;;;;;;;;;22.36;45.71;99202.97;41440259;28;19929;-72
2023/04/25 04:48:13;;;;;;;;;;;;;;;22.28;42.75;99216.09;41501241;28;19948;-71
2023/04/25 05:08:16;;;;;;;;;;;;;;;22.27;44.79;99224.97;41508296;28;19960;-76
2023/04/25 05:28:16;;;;;;;;;;;;;;;22.25;44.84;99224.28;41505061;28;20011;-74
2023/04/25 05:48:16;;;;;;;;;;;;;;;22.24;45.04;99222.66;41451814;28;19956;-71
2023/04/25 06:08:17;;;;;;;;;;;;;;;22.21;46.56;99230.88;41422482;28;19921;-76
2023/04/25 06:28:17;;;;;;;;;;;;;;;22.27;47.04;99245.25;41471212;28;19925;-77
2023/04/25 06:48:18;;;;;;;;;;;;;;;22.25;46.34;99253.28;41521684;28;19904;-79
2023/04/25 07:08:19;;;;;;;;;;;;;;;22.31;46.63;99246.59;41467285;28;21031;-77
2023/04/25 07:28:20;;;;;;;;;;;;;;;22.35;47.03;99253.19;41574601;28;19929;-77
2023/04/25 07:48:20;;;;;;;;;;;;;;;22.38;46.63;99263.50;41538402;28;20368;-77
2023/04/25 08:08:22;;;;;;;;;;;;;;;22.46;46.71;99255.63;41611488;28;19928;-77
2023/04/25 08:28:22;;;;;;;;;;;;;;;22.52;46.47;99264.72;41656730;28;20391;-78
2023/04/25 08:48:28;;;;;;;;;;;;;;;22.52;46.50;99276.13;41536338;28;19922;-76
2023/04/25 09:08:30;;;;;;;;;;;;;;;22.56;46.42;99281.91;41535854;28;20019;-75
2023/04/25 09:28:30;;;;;;;;;;;;;;;22.60;46.52;99277.97;41545698;28;19925;-77
2023/04/25 09:48:30;;;;;;;;;;;;;;;22.67;46.32;99275.56;41612046;28;19929;-76
2023/04/25 10:08:31;;;;;;;;;;;;;;;22.74;46.59;99270.47;41511854;28;20400;-79
2023/04/25 10:28:52;;;;;;;;;;;;;;;22.79;46.70;99273.47;41555747;28;20394;-79
2023/04/25 10:48:55;;;;;;;;;;;;;;;22.47;39.19;99277.56;41490947;28;19925;-79
2023/04/25 11:08:55;;;;;;;;;;;;;;;22.28;37.82;99295.19;41591841;28;20391;-77
2023/04/25 11:29:00;;;;;;;;;;;;;;;22.33;37.84;99305.28;41544551;28;19983;-77
2023/04/25 11:49:01;;;;;;;;;;;;;;;22.45;38.11;99319.06;41614678;28;19909;-77
2023/04/25 12:09:21;;;;;;;;;;;;;;;22.44;37.82;99328.00;41571639;28;19925;-75
2023/04/25 12:29:43;;;;;;;;;;;;;;;22.45;36.89;99322.56;41626444;28;19980;-77
2023/04/25 12:49:44;;;;;;;;;;;;;;;22.61;36.95;99303.38;41687094;28;19929;-77
2023/04/25 13:09:44;;;;;;;;;;;;;;;22.77;38.19;99293.91;41600955;28;20020;-81
2023/04/25 13:29:46;;;;;;;;;;;;;;;22.91;38.40;99277.50;41557362;28;19928;-80
2023/04/25 13:49:47;;;;;;;;;;;;;;;23.05;37.97;99272.63;41568451;28;19922;-83
2023/04/25 14:09:49;;;;;;;;;;;;;;;23.30;38.01;99270.91;41534567;28;19925;-84
2023/04/25 14:29:50;;;;;;;;;;;;;;;23.31;30.88;99254.09;41593082;28;19980;-83
2023/04/25 14:49:53;;;;;;;;;;;;;;;23.85;30.22;99253.69;41638165;28;19921;-82
2023/04/25 15:09:55;;;;;;;;;;;;;;;23.74;29.42;99261.94;41590288;28;19921;-84
2023/04/25 15:29:57;;;;;;;;;;;;;;;23.58;28.96;99271.50;41576665;28;19992;-81
2023/04/25 15:49:58;;;;;;;;;;;;;;;22.46;27.71;99275.91;41456926;28;20041;-82
2023/04/25 16:10:00;;;;;;;;;;;;;;;23.58;28.03;99276.81;41418313;28;19964;-79
2023/04/25 16:30:01;;;;;;;;;;;;;;;23.69;31.86;99293.31;41497864;28;19925;-82
2023/04/25 16:50:01;;;;;;;;;;;;;;;23.54;34.41;99291.31;41382790;28;20269;-77
2023/04/25 17:10:03;;;;;;;;;;;;;;;23.33;35.33;99304.94;41527829;28;19925;-78
2023/04/25 17:30:04;;;;;;;;;;;;;;;23.14;37.39;99335.88;41528756;28;19928;-80
2023/04/25 17:50:06;;;;;;;;;;;;;;;23.10;38.73;99365.38;41484375;28;20679;-81
2023/04/25 18:10:07;;;;;;;;;;;;;;;23.10;39.97;99391.78;41544108;28;19980;-81
2023/04/25 18:30:10;;;;;;;;;;;;;;;23.14;39.87;99416.88;41538813;28;20328;-82
2023/04/25 18:50:10;;;;;;;;;;;;;;;23.14;39.98;99438.00;41429483;28;19940;-75
2023/04/25 19:10:11;;;;;;;;;;;;;;;23.08;40.94;99449.19;41472925;28;19932;-80
2023/04/25 19:30:11;;;;;;;;;;;;;;;22.94;40.91;99456.69;41503133;28;19936;-78
2023/04/25 19:50:13;;;;;;;;;;;;;;;22.88;41.41;99449.38;41446104;28;19936;-80
2023/04/25 20:10:15;;;;;;;;;;;;;;;22.89;42.69;99469.53;41490601;28;19932;-76
2023/04/25 20:30:15;;;;;;;;;;;;;;;22.86;42.67;99465.38;41466443;28;20435;-78
2023/04/25 20:50:16;;;;;;;;;;;;;;;22.84;43.04;99487.63;41569394;28;20015;-78
2023/04/25 21:10:16;;;;;;;;;;;;;;;22.81;42.59;99507.25;41532299;28;19925;-80
2023/04/25 21:30:20;;;;;;;;;;;;;;;22.78;42.65;99522.56;41509640;28;20273;-80
2023/04/25 21:50:27;;;;;;;;;;;;;;;22.74;42.98;99531.72;41535327;28;20414;-78
2023/04/25 22:10:29;;;;;;;;;;;;;;;22.69;43.09;99543.56;41540370;28;19921;-81
2023/04/25 22:30:31;;;;;;;;;;;;;;;22.66;43.08;99564.97;41498694;28;19974;-77
2023/04/25 22:50:32;;;;;;;;;;;;;;;22.63;43.10;99572.34;41522973;28;19921;-75
2023/04/25 23:10:33;;;;;;;;;;;;;;;22.60;43.31;99572.66;41481481;28;19925;-77
2023/04/25 23:30:40;;;;;;;;;;;;;;;22.57;43.12;99594.91;41527629;28;20364;-81
2023/04/25 23:50:40;;;;;;;;;;;;;;;22.54;42.96;99600.47;41520329;28;20395;-80
